Marcellus, MI

10:03 PM EDT on April 30, 2017 (GMT -0400)
10ACREWOOD | | Change Station
Active Advisory: Flash Flood Watch Active Notice: Flash Flood Watch

Elev 915 ft 42.12 °N, 85.72 °W | Updated 2 seconds ago

Overcast
Overcast
53.4 °F
Feels Like 53.4 °F
N
8.3
Wind Variable Wind from NE
Gusts 10.7 mph

Today
High -- | Low -- °F
--% Chance of Precip.
Yesterday
High -- | Low -- °F
Precip. -- in
Pressure 29.71 in
Visibility 7.0 miles
Clouds Scattered Clouds 2400 ft
Mostly Cloudy 3100 ft
Overcast 6500 ft
Dew Point 52 °F
Humidity 93%
Rainfall 0.53 in
Snow Depth Not available.
6:40 AM 8:41 PM
Waxing Crescent, 28% visible
METAR KHAI 010154Z AUTO 13005KT 7SM -RA SCT024 BKN031 OVC065 17/17 A2971 RMK AO2 T01730171
Pressure 29.71 in
Visibility 7.0 miles
Clouds Scattered Clouds 2400 ft
Mostly Cloudy 3100 ft
Overcast 6500 ft
Dew Point 52 °F
Humidity 93%
Rainfall 0.53 in
Snow Depth Not available.
6:40 AM 8:41 PM
Waxing Crescent, 28% visible
METAR KHAI 010154Z AUTO 13005KT 7SM -RA SCT024 BKN031 OVC065 17/17 A2971 RMK AO2 T01730171

Get Your Daily Forecast Email!

Thanks for signing up!

Be on the lookout for a verification email in your inbox.

You'll start receiving severe weather alerts in your inbox..

×

10-Day Weather Forecast

Almanac

Astronomy

Apr. 30, 2017 Rise Set
Actual Time
Civil Twilight
Nautical Twilight
Astronomical Twilight
Moon
Length of Visible Light
Length of Day
Tomorrow will be .
, % of the Moon is Illuminated

Today's Extremes

State Highs State Lows

Community

WunderPhotos

WunderBlog® & News

Nearby

Air Quality

  Air Quality AQ Index Pollutant
Not available.

Snow Depth

Station Depth Elevation

Earthquake Activity

City Distance Mag. Time & Date
Minimum magnitude displayed is 2.5.

Coastal Water Temperatures

Place Temperature

Stations

Nearby Weather Stations

Station Location Temp. Windchill Dew Point Humidity Wind Precip. Elev Updated Type
                   

Watches & Warnings

Flash Flood Watch
Issued: 9:02 PM CDT Apr. 30, 2017 – National Weather Service

... Flash Flood Watch remains in effect until 8 am EDT /7 am CDT/
Monday...

The Flash Flood Watch continues for

* portions of northern Indiana and southwest Michigan, including
the following areas, in northern Indiana, La Porte, St. Joseph
in, and Starke. In southwest Michigan, Berrien and Cass mi.

* Until 8 am EDT /7 am CDT/ Monday

* periods of heavy rainfall are still possible overnight. Additional
rainfall amounts in excess of an inch will be possible.

* Rainfall may be heavy enough to cause flooding of streets, low
lying areas, and streams. River flooding may also develop
Monday and continue until late in the week.

Precautionary/preparedness actions...

A Flash Flood Watch means that conditions may develop that lead
to flash flooding. Flash flooding is a very dangerous situation.

You should monitor later forecasts and be prepared to take action
should flash flood warnings be issued.